Portada
METAR-TAF:

METAR-TAF

Aeropuertos :

Orange, Francia

latitud: 44-08N, longitud: 004-50E, altitud: 60 m

Observación

El informe se hizo hace 47 minutos, a las 02:30 UTC
Viento 2 kt del norte-noreste
Temperatura 10°C
Humedad 76%
Presión 1024 hPa
Visibilidad 10 km o más
Cielo cubierto a una altura de 5200 ft

METAR: LFMO 240230Z AUTO 03002KT 9999 OVC052 10/06 Q1024 TEMPO 4000 SHRA BKN035TCU

Hora: 04:17 (03:17 UTC)

Pronóstico

El informe se hizo hace 1 hora y 17 minutos, a las 02:00 UTC
Pronóstico válido del 24 a las 03 UTC al 25 a las 03 UTC
Viento 4 kt del sureste
Visibilidad 10 km o más
Cielo cubierto a una altura de 5000 ft
Temporalmente
del 24 a las 04 UTC al 24 a las 23 UTC
Visibilidad: 4000 m
Cielo nuboso a una altura de 3500 ft, Cumulus congestus.
chaparrones de lluvia

TAF: LFMO 240200Z 2403/2503 13004KT 9999 OVC050 TEMPO 2404/2423 4000 SHRA BKN035TCU

Observaciones y pronósticos meteorológicos de más de 4000 aeropuertos (mensajes METAR y TAF).

Los puntos amarillos y rojos representan las estaciones disponibles.

Ponga el ratón en el punto deseado para ver el nombre de la estación.

Haga clic para ver las observaciones y los pronósticos meteorológicos.

Para cambiar el mapa : haga clic en los botones verdes con una cruz de color negro para hacer un zoom, en el botón verde con un guión para alejar o en las flechas verdes para mapas adyacentes.


METAR-TAF: